Terminal Aerodrome Forecast
Issued by NWS Bismarck, ND

Home | Current Version | Previous Version | Graphics & Text | Print | Product List | Glossary On
Versions: 1 2 3 4 5 6 7 8 9 10 11 12 13 14 15 16 17 18 19 20 21
000
FTUS43 KBIS 211700
TAFBIS
TAF
KBIS 211721Z 2118/2218 12012KT P6SM SCT100
      TEMPO 2121/2201 VRB30G40KT 3SM +TSRAGR OVC050CB
     FM220100 36012KT P6SM VCTS OVC050CB
     FM220400 35009KT P6SM BKN050=

USA.gov is the U.S. government's official web portal to all federal, state and local government web resources and services.